Hylite — WDI9610 — position and weather

sailwx.info

Track history (hours):
 
Tides and Currents Weather Stations Pressure Air Temp Water Temp Dewpoint Dewpoint Depression Visibility Wind Speed Wind Dir Waves Ship Positions

Hylite

Owner: Jarzabkowski, Michael J, San Francisco, CA. More information available from US FCC via Universal Licensing System and Coast Guard Vessel Documentation Center.

Last reported at 2017-Nov-27 20:34 UTC. Time now 2017-Dec-15 23:32 UTC.
Position N 32°44' W 117°23'.
Warning: this ship's position is 18 days out of date.

Length 15 m.

Type: Sailing vessel. MMSI: 367750410.

Date/timePositionNaut miles runAvg speedWind from/ knotsBaromVisibWave heightAir tempDewpointWater temp
2017-Nov-27 20:34N 32°44' W 117°23'0 7.2
2017-Nov-27 20:30N 32°44' W 117°24'3 6.6
2017-Nov-27 20:00N 32°46' W 117°27'3 6.6
2017-Nov-27 19:30N 32°48' W 117°30'3 6.9
2017-Nov-27 19:00N 32°50' W 117°33'3 5.8
2017-Nov-27 18:30N 32°53' W 117°33'3 5.1
2017-Nov-27 18:00N 32°54' W 117°36'5 6.5
2017-Nov-27 17:17N 32°56' W 117°41'2 7.7
2017-Nov-27 16:59N 32°57' W 117°44'3 6.1
2017-Nov-27 16:27N 32°58' W 117°47'3 5.5
2017-Nov-27 15:59N 32°60' W 117°50'52 1.2
2017-Nov-25 19:36N 33°40' W 118°29'2 5.8
2017-Nov-25 19:13N 33°43' W 118°29'  
2017-Nov-20 00:27N 34°15' W 119°16'3 4.5
2017-Nov-19 23:53N 34°15' W 119°19'3 7.3
2017-Nov-19 23:30N 34°15' W 119°22'3 6.9
2017-Nov-19 23:00N 34°16' W 119°26'4 6.8
2017-Nov-19 22:24N 34°18' W 119°31'3 6.5
2017-Nov-19 21:58N 34°19' W 119°34'3 6.9
2017-Nov-19 21:28N 34°20' W 119°38'3 6.8
2017-Nov-19 20:59N 34°22' W 119°42'3 5.7
2017-Nov-19 20:25N 34°23' W 119°45'2 5.9
2017-Nov-19 20:00N 34°23' W 119°48'3 5.9
2017-Nov-19 19:30N 34°23' W 119°52'3 6.2
2017-Nov-19 18:59N 34°23' W 119°56'3 5.8
2017-Nov-19 18:27N 34°23' W 119°59'2 5.5
2017-Nov-19 18:00N 34°23' W 120°02'3 5.5
2017-Nov-19 17:28N 34°23' W 120°06'3 5.8
2017-Nov-19 16:55N 34°23' W 120°10'2 6.0
2017-Nov-19 16:30N 34°23' W 120°13'3 6.4
2017-Nov-19 16:00N 34°23' W 120°17'3 6.4
2017-Nov-19 15:30N 34°23' W 120°21'3 5.8
2017-Nov-19 14:57N 34°23' W 120°24'3 5.8
2017-Nov-19 14:22N 34°24' W 120°28'2 5.8
2017-Nov-19 13:58N 34°25' W 120°31'2 3.8
2017-Nov-19 13:29N 34°26' W 120°33'4 6.1
2017-Nov-19 12:52N 34°28' W 120°37'3 7.5
2017-Nov-19 12:30N 34°30' W 120°39'3 7.1
2017-Nov-19 12:00N 34°33' W 120°42'3 5.4
2017-Nov-19 11:27N 34°35' W 120°44'3 6.0
2017-Nov-19 11:00N 34°36' W 120°47'3 6.5
2017-Nov-19 10:30N 34°38' W 120°50'4 7.2
2017-Nov-19 10:00N 34°41' W 120°53'4 7.2
2017-Nov-19 09:30N 34°43' W 120°57'3 6.8
2017-Nov-19 09:00N 34°46' W 120°60'3 6.8
2017-Nov-19 08:30N 34°48' W 121°03'3 6.6
2017-Nov-19 08:00N 34°50' W 121°06'3 5.5
2017-Nov-19 07:30N 34°52' W 121°08'3 5.6
2017-Nov-19 07:00N 34°53' W 121°11'3 5.9
2017-Nov-19 06:30N 34°55' W 121°14'3 5.7
2017-Nov-19 06:00N 34°56' W 121°17'3 5.2
2017-Nov-19 05:30N 34°59' W 121°17'7 6.3
2017-Nov-19 04:23N 35°06' W 121°16'3 6.7
2017-Nov-19 04:00N 35°09' W 121°16'3 6.3
2017-Nov-19 03:30N 35°12' W 121°17'27 6.5
2017-Nov-18 23:23N 35°32' W 121°38'32 5.9
2017-Nov-18 18:01N 35°51' W 122°10'1 6.2
2017-Nov-18 17:53N 35°51' W 122°10'3 6.1
2017-Nov-18 17:27N 35°53' W 122°12'2 3.6
2017-Nov-18 17:00N 35°55' W 122°14'1 2.9
2017-Nov-18 16:30N 35°55' W 122°15'2 3.6
2017-Nov-18 15:58N 35°56' W 122°17'95 5.7
2017-Nov-17 23:24N 37°29' W 122°44'4 7.2
2017-Nov-17 22:53N 37°32' W 122°42'  
Track history (hours):
 
Tides and Currents Weather Stations Pressure Air Temp Water Temp Dewpoint Dewpoint Depression Visibility Wind Speed Wind Dir Waves Ship Positions

Hylite

Owner: Jarzabkowski, Michael J, San Francisco, CA. More information available from US FCC via Universal Licensing System and Coast Guard Vessel Documentation Center.

Last reported at 2017-Nov-27 20:34 UTC. Time now 2017-Dec-15 23:32 UTC.
Position N 32°44' W 117°23'.
Warning: this ship's position is 18 days out of date.

Length 15 m.

Type: Sailing vessel. MMSI: 367750410.

Date/timePositionNaut miles runAvg speedWind from/ knotsBaromVisibWave heightAir tempDewpointWater temp
2017-Nov-27 20:34N 32°44' W 117°23'0 7.2
2017-Nov-27 20:30N 32°44' W 117°24'3 6.6
2017-Nov-27 20:00N 32°46' W 117°27'3 6.6
2017-Nov-27 19:30N 32°48' W 117°30'3 6.9
2017-Nov-27 19:00N 32°50' W 117°33'3 5.8
2017-Nov-27 18:30N 32°53' W 117°33'3 5.1
2017-Nov-27 18:00N 32°54' W 117°36'5 6.5
2017-Nov-27 17:17N 32°56' W 117°41'2 7.7
2017-Nov-27 16:59N 32°57' W 117°44'3 6.1
2017-Nov-27 16:27N 32°58' W 117°47'3 5.5
2017-Nov-27 15:59N 32°60' W 117°50'52 1.2
2017-Nov-25 19:36N 33°40' W 118°29'2 5.8
2017-Nov-25 19:13N 33°43' W 118°29'  
2017-Nov-20 00:27N 34°15' W 119°16'3 4.5
2017-Nov-19 23:53N 34°15' W 119°19'3 7.3
2017-Nov-19 23:30N 34°15' W 119°22'3 6.9
2017-Nov-19 23:00N 34°16' W 119°26'4 6.8
2017-Nov-19 22:24N 34°18' W 119°31'3 6.5
2017-Nov-19 21:58N 34°19' W 119°34'3 6.9
2017-Nov-19 21:28N 34°20' W 119°38'3 6.8
2017-Nov-19 20:59N 34°22' W 119°42'3 5.7
2017-Nov-19 20:25N 34°23' W 119°45'2 5.9
2017-Nov-19 20:00N 34°23' W 119°48'3 5.9
2017-Nov-19 19:30N 34°23' W 119°52'3 6.2
2017-Nov-19 18:59N 34°23' W 119°56'3 5.8
2017-Nov-19 18:27N 34°23' W 119°59'2 5.5
2017-Nov-19 18:00N 34°23' W 120°02'3 5.5
2017-Nov-19 17:28N 34°23' W 120°06'3 5.8
2017-Nov-19 16:55N 34°23' W 120°10'2 6.0
2017-Nov-19 16:30N 34°23' W 120°13'3 6.4
2017-Nov-19 16:00N 34°23' W 120°17'3 6.4
2017-Nov-19 15:30N 34°23' W 120°21'3 5.8
2017-Nov-19 14:57N 34°23' W 120°24'3 5.8
2017-Nov-19 14:22N 34°24' W 120°28'2 5.8
2017-Nov-19 13:58N 34°25' W 120°31'2 3.8
2017-Nov-19 13:29N 34°26' W 120°33'4 6.1
2017-Nov-19 12:52N 34°28' W 120°37'3 7.5
2017-Nov-19 12:30N 34°30' W 120°39'3 7.1
2017-Nov-19 12:00N 34°33' W 120°42'3 5.4
2017-Nov-19 11:27N 34°35' W 120°44'3 6.0
2017-Nov-19 11:00N 34°36' W 120°47'3 6.5
2017-Nov-19 10:30N 34°38' W 120°50'4 7.2
2017-Nov-19 10:00N 34°41' W 120°53'4 7.2
2017-Nov-19 09:30N 34°43' W 120°57'3 6.8
2017-Nov-19 09:00N 34°46' W 120°60'3 6.8
2017-Nov-19 08:30N 34°48' W 121°03'3 6.6
2017-Nov-19 08:00N 34°50' W 121°06'3 5.5
2017-Nov-19 07:30N 34°52' W 121°08'3 5.6
2017-Nov-19 07:00N 34°53' W 121°11'3 5.9
2017-Nov-19 06:30N 34°55' W 121°14'3 5.7
2017-Nov-19 06:00N 34°56' W 121°17'3 5.2
2017-Nov-19 05:30N 34°59' W 121°17'7 6.3
2017-Nov-19 04:23N 35°06' W 121°16'3 6.7
2017-Nov-19 04:00N 35°09' W 121°16'3 6.3
2017-Nov-19 03:30N 35°12' W 121°17'27 6.5
2017-Nov-18 23:23N 35°32' W 121°38'32 5.9
2017-Nov-18 18:01N 35°51' W 122°10'1 6.2
2017-Nov-18 17:53N 35°51' W 122°10'3 6.1
2017-Nov-18 17:27N 35°53' W 122°12'2 3.6
2017-Nov-18 17:00N 35°55' W 122°14'1 2.9
2017-Nov-18 16:30N 35°55' W 122°15'2 3.6
2017-Nov-18 15:58N 35°56' W 122°17'95 5.7
2017-Nov-17 23:24N 37°29' W 122°44'4 7.2
2017-Nov-17 22:53N 37°32' W 122°42'  

Dump ship's entire track history